createdAt,value
2018-11-11T00:00:23.457Z,97610.69
2018-11-11T00:03:27.587Z,97621.34
2018-11-11T00:06:31.789Z,97633.21
2018-11-11T00:09:35.903Z,97627.84
2018-11-11T00:12:40.410Z,97632.16
2018-11-11T00:15:44.543Z,97630.83
2018-11-11T00:18:48.675Z,97630.80
2018-11-11T00:21:52.977Z,97623.58
2018-11-11T00:24:57.146Z,97615.22
2018-11-11T00:28:01.302Z,97609.61
2018-11-11T00:31:05.491Z,97607.04
2018-11-11T00:34:09.638Z,97614.23
2018-11-11T00:37:13.769Z,97615.45
2018-11-11T00:40:17.923Z,97613.02
2018-11-11T00:43:22.083Z,97611.67
2018-11-11T00:46:26.216Z,97611.31
2018-11-11T00:49:30.358Z,97601.89
2018-11-11T00:52:34.507Z,97596.94
2018-11-11T00:55:39.081Z,97598.00
2018-11-11T00:58:43.214Z,97608.98
2018-11-11T01:01:48.175Z,97603.05
2018-11-11T01:04:52.317Z,97603.52
2018-11-11T01:07:56.459Z,97603.52
2018-11-11T01:11:00.587Z,97610.83
2018-11-11T01:14:04.749Z,97611.38
2018-11-11T01:17:09.525Z,97615.40
2018-11-11T01:20:14.870Z,97620.44
2018-11-11T01:23:19.006Z,97621.42
2018-11-11T01:26:23.154Z,97620.73
2018-11-11T01:29:27.323Z,97632.38
2018-11-11T01:32:31.457Z,97630.67
2018-11-11T01:35:35.571Z,97617.55
2018-11-11T01:38:39.716Z,97619.87
2018-11-11T01:41:43.847Z,97625.83
2018-11-11T01:44:47.957Z,97627.77
2018-11-11T01:47:52.078Z,97614.80
2018-11-11T01:50:56.192Z,97603.71
2018-11-11T01:54:00.326Z,97618.53
2018-11-11T01:57:04.452Z,97615.02
2018-11-11T02:00:13.088Z,97616.95
2018-11-11T02:03:17.214Z,97620.73
2018-11-11T02:06:21.336Z,97615.63
2018-11-11T02:09:25.450Z,97616.20
2018-11-11T02:12:29.602Z,97622.31
2018-11-11T02:15:33.726Z,97622.85
2018-11-11T02:18:37.859Z,97619.60
2018-11-11T02:21:42.020Z,97606.39
2018-11-11T02:24:46.118Z,97613.58
2018-11-11T02:27:50.278Z,97614.66
2018-11-11T02:30:54.500Z,97606.88
2018-11-11T02:33:58.624Z,97612.18
2018-11-11T02:37:02.754Z,97612.66
2018-11-11T02:40:09.990Z,97615.84
2018-11-11T02:43:14.130Z,97611.94
2018-11-11T02:46:18.262Z,97612.95
2018-11-11T02:49:22.391Z,97598.48
2018-11-11T02:52:26.527Z,97597.14
2018-11-11T02:55:30.641Z,97602.69
2018-11-11T02:58:34.767Z,97598.69
2018-11-11T03:01:38.911Z,97595.23
2018-11-11T03:04:43.035Z,97592.45
2018-11-11T03:07:47.150Z,97606.11
2018-11-11T03:10:51.277Z,97615.44
2018-11-11T03:13:55.967Z,97619.20
2018-11-11T03:17:00.095Z,97611.15
2018-11-11T03:20:04.510Z,97601.48
2018-11-11T03:23:08.652Z,97611.15
2018-11-11T03:26:12.819Z,97610.94
2018-11-11T03:29:16.958Z,97614.30
2018-11-11T03:32:21.109Z,97618.95
2018-11-11T03:35:25.239Z,97627.42
2018-11-11T03:38:29.379Z,97628.47
2018-11-11T03:41:33.537Z,97642.30
2018-11-11T03:44:37.670Z,97633.14
2018-11-11T03:47:42.690Z,97593.39
2018-11-11T03:50:46.826Z,97596.41
2018-11-11T03:53:50.942Z,97602.55
2018-11-11T03:56:55.066Z,97609.50
2018-11-11T03:59:59.206Z,97604.70
2018-11-11T04:03:03.350Z,97607.70
2018-11-11T04:06:07.472Z,97615.58
2018-11-11T04:09:12.626Z,97618.19
2018-11-11T04:12:16.767Z,97609.69
2018-11-11T04:15:21.072Z,97609.17
2018-11-11T04:18:25.186Z,97605.47
2018-11-11T04:21:29.409Z,97595.13
2018-11-11T04:24:33.526Z,97583.29
2018-11-11T04:27:37.668Z,97588.90
2018-11-11T04:30:41.798Z,97601.88
2018-11-11T04:33:45.978Z,97583.55
2018-11-11T04:36:50.121Z,97578.56
2018-11-11T04:39:54.274Z,97578.33
2018-11-11T04:42:58.418Z,97593.97
2018-11-11T04:46:02.642Z,97586.45
2018-11-11T04:49:06.790Z,97591.02
2018-11-11T04:52:11.019Z,97599.14
2018-11-11T04:55:15.153Z,97575.30
2018-11-11T04:58:19.331Z,97582.78
2018-11-11T05:01:23.541Z,97588.60
2018-11-11T05:04:27.624Z,97583.29
2018-11-11T05:07:31.730Z,97585.55
2018-11-11T05:10:35.876Z,97584.20
2018-11-11T05:13:40.015Z,97577.02
2018-11-11T05:16:44.154Z,97580.53
2018-11-11T05:19:48.315Z,97580.53
2018-11-11T05:22:52.462Z,97578.01
2018-11-11T05:25:56.607Z,97574.73
2018-11-11T05:29:00.755Z,97570.15
2018-11-11T05:32:05.018Z,97569.05
2018-11-11T05:35:10.136Z,97561.00
2018-11-11T05:38:14.277Z,97576.20
2018-11-11T05:41:18.426Z,97590.72
2018-11-11T05:44:22.567Z,97595.62
2018-11-11T05:47:26.703Z,97604.22
2018-11-11T05:50:30.845Z,97611.22
2018-11-11T05:53:34.997Z,97621.63
2018-11-11T05:56:39.150Z,97626.91
2018-11-11T05:59:43.290Z,97617.60
2018-11-11T06:02:47.422Z,97614.41
2018-11-11T06:05:51.583Z,97620.82
2018-11-11T06:08:55.737Z,97615.32
2018-11-11T06:11:59.889Z,97625.03
2018-11-11T06:15:04.114Z,97620.23
2018-11-11T06:18:08.265Z,97628.84
2018-11-11T06:21:12.393Z,97635.88
2018-11-11T06:24:16.577Z,97648.67
2018-11-11T06:27:20.767Z,97657.02
2018-11-11T06:30:24.867Z,97665.49
2018-11-11T06:33:28.996Z,97682.18
2018-11-11T06:36:33.122Z,97697.45
2018-11-11T06:39:37.250Z,97712.73
2018-11-11T06:42:41.719Z,97725.62
2018-11-11T06:45:45.845Z,97738.45
2018-11-11T06:48:49.963Z,97757.45
2018-11-11T06:51:54.073Z,97776.73
2018-11-11T06:54:58.199Z,97802.95
2018-11-11T06:58:02.381Z,97799.13
2018-11-11T07:01:06.739Z,97787.27
2018-11-11T07:04:10.854Z,97798.45
2018-11-11T07:07:14.970Z,97802.00
2018-11-11T07:10:19.118Z,97814.81
2018-11-11T07:13:23.315Z,97820.62
2018-11-11T07:16:27.453Z,97825.35
2018-11-11T07:19:31.584Z,97816.61
2018-11-11T07:22:35.718Z,97822.39
2018-11-11T07:25:39.862Z,97815.00
2018-11-11T07:28:44.002Z,97812.56
2018-11-11T07:31:48.134Z,97814.50
2018-11-11T07:34:52.415Z,97811.22
2018-11-11T07:37:56.581Z,97816.56
2018-11-11T07:41:00.726Z,97820.48
2018-11-11T07:44:04.988Z,97821.85
2018-11-11T07:47:09.114Z,97829.89
2018-11-11T07:50:13.294Z,97847.89
2018-11-11T07:53:17.455Z,97865.14
2018-11-11T07:56:21.605Z,97864.39
2018-11-11T07:59:25.742Z,97864.12
2018-11-11T08:02:29.886Z,97867.75
2018-11-11T08:05:34.044Z,97869.36
2018-11-11T08:08:38.179Z,97874.20
2018-11-11T08:11:54.509Z,97874.23
2018-11-11T08:14:58.655Z,97866.25
2018-11-11T08:18:02.813Z,97866.59
2018-11-11T08:21:06.976Z,97870.11
2018-11-11T08:24:11.118Z,97868.79
2018-11-11T08:27:15.262Z,97870.75
2018-11-11T08:30:19.421Z,97880.47
2018-11-11T08:33:23.553Z,97877.95
2018-11-11T08:36:27.734Z,97881.37
2018-11-11T08:39:31.880Z,97883.47
2018-11-11T08:42:36.018Z,97891.45
2018-11-11T08:45:40.166Z,97889.25
2018-11-11T08:48:44.307Z,97896.83
2018-11-11T08:51:48.434Z,97894.48
2018-11-11T08:54:52.582Z,97894.73
2018-11-11T08:57:56.747Z,97893.44
2018-11-11T09:01:00.861Z,97890.33
2018-11-11T09:04:05.292Z,97898.56
2018-11-11T09:07:09.430Z,97907.86
2018-11-11T09:10:13.682Z,97908.72
2018-11-11T09:13:17.832Z,97898.04
2018-11-11T09:16:22.023Z,97896.27
2018-11-11T09:19:26.154Z,97902.42
2018-11-11T09:22:30.297Z,97897.20
2018-11-11T09:25:34.442Z,97895.96
2018-11-11T09:28:38.587Z,97896.50
2018-11-11T09:31:42.735Z,97903.71
2018-11-11T09:34:46.907Z,97904.27
2018-11-11T09:37:51.036Z,97907.63
2018-11-11T09:40:55.142Z,97912.92
2018-11-11T09:43:59.263Z,97917.48
2018-11-11T09:47:03.394Z,97925.97
2018-11-11T09:50:10.773Z,97934.56
2018-11-11T09:53:14.898Z,97933.02
2018-11-11T09:56:19.016Z,97934.89
2018-11-11T09:59:23.151Z,97936.22
2018-11-11T10:02:27.261Z,97924.89
2018-11-11T10:07:40.466Z,97932.94
2018-11-11T10:12:57.303Z,97930.87
2018-11-11T10:16:14.235Z,97931.62
2018-11-11T10:19:22.391Z,97938.79
2018-11-11T10:22:34.593Z,97931.55
2018-11-11T10:25:43.119Z,97935.45
2018-11-11T10:30:00.286Z,97932.11
2018-11-11T10:34:32.146Z,97935.87
2018-11-11T10:37:47.130Z,97933.92
2018-11-11T10:40:55.826Z,97936.94
2018-11-11T10:44:03.234Z,97941.63
2018-11-11T10:47:17.977Z,97925.66
2018-11-11T10:50:27.390Z,97911.66
2018-11-11T10:53:31.523Z,97902.17
2018-11-11T10:56:35.684Z,97919.35
2018-11-11T10:59:39.819Z,97907.56
2018-11-11T11:02:49.234Z,97906.09
2018-11-11T11:05:53.390Z,97908.41
2018-11-11T11:09:02.782Z,97906.64
2018-11-11T11:12:06.936Z,97904.80
2018-11-11T11:15:11.314Z,97896.91
2018-11-11T11:18:15.509Z,97885.61
2018-11-11T11:21:19.692Z,97883.33
2018-11-11T11:24:23.832Z,97885.76
2018-11-11T11:27:28.092Z,97883.31
2018-11-11T11:30:32.174Z,97888.06
2018-11-11T11:33:36.306Z,97877.68
2018-11-11T11:36:40.421Z,97882.48
2018-11-11T11:39:44.542Z,97870.92
2018-11-11T11:42:48.664Z,97860.02
2018-11-11T11:45:52.793Z,97861.94
2018-11-11T11:48:56.894Z,97873.98
2018-11-11T11:52:01.043Z,97875.95
2018-11-11T11:55:05.600Z,97892.66
2018-11-11T11:58:17.842Z,97885.66
2018-11-11T12:01:21.950Z,97893.93
2018-11-11T12:04:26.171Z,97907.30
2018-11-11T12:07:30.295Z,97895.97
2018-11-11T12:10:34.415Z,97906.82
2018-11-11T12:13:38.546Z,97893.68
2018-11-11T12:16:42.736Z,97903.52
2018-11-11T12:19:46.830Z,97887.29
2018-11-11T12:22:50.937Z,97894.55
2018-11-11T12:25:55.050Z,97890.11
2018-11-11T12:28:59.181Z,97890.03
2018-11-11T12:32:03.634Z,97891.86
2018-11-11T12:35:08.408Z,97877.84
2018-11-11T12:38:12.521Z,97876.56
2018-11-11T12:41:16.661Z,97886.28
2018-11-11T12:44:20.890Z,97904.13
2018-11-11T12:47:25.044Z,97886.72
2018-11-11T12:50:29.228Z,97892.53
2018-11-11T12:53:33.338Z,97899.28
2018-11-11T12:56:37.486Z,97900.23
2018-11-11T12:59:41.657Z,97898.25
2018-11-11T13:02:45.814Z,97896.52
2018-11-11T13:05:49.954Z,97898.04
2018-11-11T13:08:54.102Z,97893.73
2018-11-11T13:11:58.322Z,97908.86
2018-11-11T13:15:02.419Z,97915.61
2018-11-11T13:18:06.917Z,97911.70
2018-11-11T13:21:11.049Z,97915.95
2018-11-11T13:24:15.302Z,97914.53
2018-11-11T13:27:19.509Z,97918.89
2018-11-11T13:30:23.656Z,97926.09
2018-11-11T13:33:27.794Z,97929.99
2018-11-11T13:36:31.921Z,97927.19
2018-11-11T13:39:36.175Z,97933.95
2018-11-11T13:42:40.359Z,97932.11
2018-11-11T13:45:44.495Z,97930.53
2018-11-11T13:48:48.634Z,97934.05
2018-11-11T13:51:52.816Z,97929.79
2018-11-11T13:54:56.914Z,97936.70
2018-11-11T13:58:01.054Z,97940.22
2018-11-11T14:01:05.222Z,97939.73
2018-11-11T14:04:09.363Z,97939.09
2018-11-11T14:07:13.486Z,97933.94
2018-11-11T14:10:17.914Z,97932.64
2018-11-11T14:13:22.068Z,97934.55
2018-11-11T14:16:26.189Z,97933.45
2018-11-11T14:19:30.405Z,97939.66
2018-11-11T14:22:34.447Z,97940.61
2018-11-11T14:25:38.618Z,97946.76
2018-11-11T14:28:42.735Z,97948.59
2018-11-11T14:31:46.834Z,97950.22
2018-11-11T14:34:50.997Z,97937.25
2018-11-11T14:37:55.134Z,97923.89
2018-11-11T14:40:59.273Z,97919.78
2018-11-11T14:44:03.482Z,97920.84
2018-11-11T14:47:07.638Z,97923.00
2018-11-11T14:50:13.133Z,97930.76
2018-11-11T14:53:17.194Z,97922.31
2018-11-11T14:56:21.318Z,97920.44
2018-11-11T14:59:25.458Z,97909.73
2018-11-11T15:02:29.576Z,97911.48
2018-11-11T15:05:33.813Z,97908.91
2018-11-11T15:08:37.935Z,97911.81
2018-11-11T15:11:42.290Z,97904.92
2018-11-11T15:14:46.471Z,97896.84
2018-11-11T15:17:51.239Z,97898.39
2018-11-11T15:20:55.523Z,97898.88
2018-11-11T15:23:59.496Z,97896.86
2018-11-11T15:27:03.632Z,97894.23
2018-11-11T15:30:11.675Z,97887.94
2018-11-11T15:33:15.792Z,97888.72
2018-11-11T15:36:19.932Z,97896.82
2018-11-11T15:39:24.062Z,97899.39
2018-11-11T15:42:28.289Z,97902.41
2018-11-11T15:45:33.409Z,97911.89
2018-11-11T15:48:37.656Z,97901.77
2018-11-11T15:51:41.750Z,97900.20
2018-11-11T15:54:45.991Z,97892.42
2018-11-11T15:57:50.186Z,97897.60
2018-11-11T16:00:54.329Z,97902.00
2018-11-11T16:03:58.455Z,97917.31
2018-11-11T16:07:02.591Z,97917.12
2018-11-11T16:10:08.282Z,97929.54
2018-11-11T16:13:12.409Z,97924.15
2018-11-11T16:16:16.543Z,97930.50
2018-11-11T16:19:20.670Z,97936.95
2018-11-11T16:22:24.904Z,97944.34
2018-11-11T16:25:29.161Z,97949.04
2018-11-11T16:28:33.275Z,97955.16
2018-11-11T16:31:37.400Z,97958.11
2018-11-11T16:34:41.538Z,97961.68
2018-11-11T16:37:45.751Z,97978.28
2018-11-11T16:40:50.039Z,97980.44
2018-11-11T16:43:54.187Z,97987.54
2018-11-11T16:46:58.302Z,97984.20
2018-11-11T16:50:02.621Z,97987.52
2018-11-11T16:53:08.250Z,97993.69
2018-11-11T16:56:12.266Z,97995.42
2018-11-11T16:59:16.452Z,98004.78
2018-11-11T17:02:20.618Z,98014.80
2018-11-11T17:05:26.102Z,98022.56
2018-11-11T17:08:30.255Z,98021.66
2018-11-11T17:11:34.411Z,98021.04
2018-11-11T17:14:38.547Z,98021.73
2018-11-11T17:17:42.826Z,98023.70
2018-11-11T17:20:47.010Z,98026.25
2018-11-11T17:23:51.120Z,98036.04
2018-11-11T17:26:55.293Z,98032.34
2018-11-11T17:29:59.546Z,98040.41
2018-11-11T17:33:03.700Z,98045.20
2018-11-11T17:36:07.876Z,98050.11
2018-11-11T17:39:12.473Z,98049.06
2018-11-11T17:42:16.531Z,98045.33
2018-11-11T17:45:20.918Z,98051.48
2018-11-11T17:48:25.089Z,98040.41
2018-11-11T17:51:29.218Z,98050.02
2018-11-11T17:54:33.382Z,98045.33
2018-11-11T17:57:37.514Z,98041.16
2018-11-11T18:00:41.672Z,98043.13
2018-11-11T18:03:45.789Z,98037.84
2018-11-11T18:06:49.911Z,98035.46
2018-11-11T18:09:54.044Z,98042.62
2018-11-11T18:12:58.226Z,98046.90
2018-11-11T18:16:02.354Z,98052.92
2018-11-11T18:19:06.498Z,98054.23
2018-11-11T18:22:10.621Z,98056.31
2018-11-11T18:25:14.760Z,98050.30
2018-11-11T18:28:18.970Z,98045.97
2018-11-11T18:31:23.015Z,98035.08
2018-11-11T18:34:27.246Z,98047.47
2018-11-11T18:37:31.343Z,98043.70
2018-11-11T18:40:35.500Z,98049.47
2018-11-11T18:43:39.646Z,98054.02
2018-11-11T18:46:43.782Z,98054.53
2018-11-11T18:49:47.930Z,98054.67
2018-11-11T18:52:52.086Z,98046.80
2018-11-11T18:55:56.269Z,98054.41
2018-11-11T18:59:00.472Z,98051.14
2018-11-11T19:02:04.700Z,98056.25
2018-11-11T19:05:11.308Z,98067.33
2018-11-11T19:08:15.450Z,98066.85
2018-11-11T19:11:19.608Z,98075.86
2018-11-11T19:14:23.754Z,98086.81
2018-11-11T19:17:27.891Z,98091.36
2018-11-11T19:20:32.038Z,98092.17
2018-11-11T19:23:41.455Z,98102.85
2018-11-11T19:26:45.642Z,98099.68
2018-11-11T19:29:53.571Z,98105.88
2018-11-11T19:32:57.702Z,98107.84
2018-11-11T19:36:01.823Z,98114.04
2018-11-11T19:39:13.141Z,98107.25
2018-11-11T19:42:17.269Z,98112.63
2018-11-11T19:45:22.740Z,98106.68
2018-11-11T19:51:41.569Z,98124.27
2018-11-11T19:54:45.689Z,98120.29
2018-11-11T19:57:49.751Z,98126.65
2018-11-11T20:00:54.624Z,98136.64
2018-11-11T20:03:58.759Z,98134.72
2018-11-11T20:07:02.879Z,98129.69
2018-11-11T20:10:11.443Z,98123.81
2018-11-11T20:13:15.566Z,98120.36
2018-11-11T20:16:19.681Z,98128.86
2018-11-11T20:19:25.306Z,98139.25
2018-11-11T20:22:29.439Z,98130.86
2018-11-11T20:25:33.665Z,98126.50
2018-11-11T20:28:37.785Z,98143.26
2018-11-11T20:31:41.977Z,98144.34
2018-11-11T20:34:46.059Z,98148.91
2018-11-11T20:37:50.208Z,98158.53
2018-11-11T20:40:54.640Z,98162.57
2018-11-11T20:43:59.186Z,98165.29
2018-11-11T20:47:03.411Z,98179.63
2018-11-11T20:50:11.129Z,98177.98
2018-11-11T20:53:15.430Z,98176.48
2018-11-11T20:59:42.932Z,98185.08
2018-11-11T21:02:48.560Z,98178.02
2018-11-11T21:05:53.691Z,98179.12
2018-11-11T21:12:41.318Z,98189.27
2018-11-11T21:15:46.830Z,98193.02
2018-11-11T21:18:51.298Z,98182.98
2018-11-11T21:21:55.670Z,98190.80
2018-11-11T21:25:00.310Z,98193.70
2018-11-11T21:28:06.248Z,98189.19
2018-11-11T21:31:10.829Z,98200.38
2018-11-11T21:34:15.819Z,98199.89
2018-11-11T21:37:21.828Z,98199.53
2018-11-11T21:40:27.023Z,98195.44
2018-11-11T21:43:31.259Z,98212.02
2018-11-11T21:46:36.056Z,98211.45
2018-11-11T21:49:40.324Z,98207.23
2018-11-11T21:52:46.381Z,98216.93
2018-11-11T21:55:50.623Z,98216.34
2018-11-11T21:58:54.755Z,98218.28
2018-11-11T22:01:58.901Z,98207.66
2018-11-11T22:05:03.022Z,98207.58
2018-11-11T22:08:07.151Z,98209.90
2018-11-11T22:11:11.274Z,98208.57
2018-11-11T22:14:15.411Z,98204.83
2018-11-11T22:17:19.542Z,98206.70
2018-11-11T22:20:23.660Z,98201.30
2018-11-11T22:23:27.890Z,98200.50
2018-11-11T22:26:32.012Z,98197.88
2018-11-11T22:29:36.128Z,98205.73
2018-11-11T22:32:40.568Z,98215.77
2018-11-11T22:35:44.690Z,98218.58
2018-11-11T22:38:48.838Z,98225.91
2018-11-11T22:41:52.973Z,98227.57
2018-11-11T22:44:57.106Z,98228.98
2018-11-11T22:48:01.235Z,98228.73
2018-11-11T22:51:05.395Z,98219.03
2018-11-11T22:54:09.538Z,98223.90
2018-11-11T22:57:13.666Z,98218.86
2018-11-11T23:00:23.073Z,98220.80
2018-11-11T23:03:27.199Z,98219.23
2018-11-11T23:06:31.318Z,98225.44
2018-11-11T23:09:35.479Z,98216.38
2018-11-11T23:12:39.911Z,98217.78
2018-11-11T23:15:44.037Z,98216.45
2018-11-11T23:18:48.168Z,98222.38
2018-11-11T23:21:52.298Z,98225.30
2018-11-11T23:24:56.459Z,98220.80
2018-11-11T23:28:00.598Z,98231.77
2018-11-11T23:31:04.799Z,98227.75
2018-11-11T23:34:08.934Z,98222.33
2018-11-11T23:37:13.063Z,98219.61
2018-11-11T23:40:18.247Z,98215.56
2018-11-11T23:43:22.330Z,98219.80
2018-11-11T23:46:26.462Z,98221.87
2018-11-11T23:49:30.622Z,98207.69
2018-11-11T23:52:34.754Z,98203.53
2018-11-11T23:55:38.902Z,98199.23
2018-11-11T23:58:43.042Z,98197.61
